Time;durP1;ratioP1;P1;durP2;ratioP2;P2;SDS_P1;SDS_P2;PMS_P1;PMS_P2;Temp;Humidity;BMP_temperature;BMP_pressure;BME280_temperature;BME280_humidity;BME280_pressure;Samples;Min_cycle;Max_cycle;Signal;HPM_P1;HPM_P2
2022/03/29 00:01:12;;;;;;;3.70;2.83;;;17.20;57.20;;;;;;10398375;28;20034;-60
2022/03/29 00:06:13;;;;;;;3.90;2.85;;;17.20;57.20;;;;;;10410767;28;20125;-60
2022/03/29 00:11:14;;;;;;;4.78;3.22;;;17.20;57.10;;;;;;10370797;28;20117;-60
2022/03/29 00:16:14;;;;;;;5.10;3.17;;;17.20;57.00;;;;;;10379600;28;20501;-60
2022/03/29 00:21:15;;;;;;;5.05;3.17;;;17.20;57.10;;;;;;10371004;28;20057;-61
2022/03/29 00:26:16;;;;;;;5.10;3.50;;;17.20;57.10;;;;;;10370394;28;20053;-60
2022/03/29 00:31:19;;;;;;;4.28;3.17;;;17.20;57.20;;;;;;10370338;28;20544;-60
2022/03/29 00:36:20;;;;;;;4.18;3.45;;;17.20;57.10;;;;;;10407114;28;20047;-60
2022/03/29 00:41:21;;;;;;;4.68;3.15;;;17.10;57.10;;;;;;10419280;28;20108;-60
2022/03/29 00:46:22;;;;;;;5.85;2.95;;;17.10;57.20;;;;;;10384474;28;20030;-60
2022/03/29 00:51:23;;;;;;;4.07;3.03;;;17.20;57.20;;;;;;10378475;28;20440;-60
2022/03/29 00:56:24;;;;;;;4.13;2.58;;;17.20;57.20;;;;;;10391542;28;20065;-60
2022/03/29 01:01:25;;;;;;;4.63;2.60;;;17.20;57.20;;;;;;10378212;28;20072;-61
2022/03/29 01:06:26;;;;;;;5.35;3.72;;;17.10;57.20;;;;;;10380743;28;20055;-60
2022/03/29 01:11:27;;;;;;;5.10;3.38;;;17.10;57.80;;;;;;10414026;28;20121;-60
2022/03/29 01:22:05;;;;;;;3.77;3.07;;;17.10;57.50;;;;;;10377428;28;20069;-61
2022/03/29 01:27:09;;;;;;;4.32;3.17;;;17.20;57.20;;;;;;10366415;28;20033;-60
2022/03/29 01:32:11;;;;;;;3.50;2.88;;;17.20;57.20;;;;;;10418213;28;20489;-61
2022/03/29 01:37:12;;;;;;;4.22;2.90;;;17.20;57.20;;;;;;10377811;28;20367;-60
2022/03/29 01:42:13;;;;;;;4.85;3.20;;;17.20;57.10;;;;;;10386888;28;20026;-60
2022/03/29 01:47:21;;;;;;;3.78;2.75;;;17.20;57.00;;;;;;10375693;28;20022;-60
2022/03/29 01:52:21;;;;;;;3.78;2.50;;;17.20;57.00;;;;;;10380178;28;20030;-60
2022/03/29 01:57:26;;;;;;;5.47;2.63;;;17.20;57.20;;;;;;10376572;28;20108;-60
2022/03/29 02:02:27;;;;;;;4.13;2.90;;;17.10;57.40;;;;;;10376546;28;20037;-60
2022/03/29 02:07:28;;;;;;;4.60;3.25;;;17.20;57.40;;;;;;10379394;28;20069;-60
2022/03/29 02:12:28;;;;;;;4.50;2.97;;;17.10;57.30;;;;;;10370889;28;20331;-60
2022/03/29 02:17:29;;;;;;;4.47;3.35;;;17.10;57.20;;;;;;10375485;28;20053;-59
2022/03/29 02:22:32;;;;;;;4.90;3.78;;;17.10;57.20;;;;;;10384040;28;20030;-60
2022/03/29 02:27:32;;;;;;;4.47;3.22;;;17.00;57.30;;;;;;10375646;28;20061;-60
2022/03/29 02:32:33;;;;;;;5.93;3.80;;;17.10;57.20;;;;;;10376239;28;20029;-60
2022/03/29 02:37:35;;;;;;;5.15;3.65;;;17.10;57.30;;;;;;10404733;28;20485;-60
2022/03/29 02:42:44;;;;;;;4.55;3.10;;;17.10;57.20;;;;;;10372725;28;20034;-60
2022/03/29 02:47:47;;;;;;;4.68;3.28;;;17.10;57.30;;;;;;10391156;28;20025;-60
2022/03/29 02:52:52;;;;;;;4.53;3.63;;;17.10;56.90;;;;;;10409134;28;20140;-60
2022/03/29 02:57:53;;;;;;;4.50;3.08;;;17.10;57.00;;;;;;10375376;28;20084;-60
2022/03/29 03:02:55;;;;;;;5.38;4.00;;;17.00;57.10;;;;;;10407375;28;20115;-60
2022/03/29 03:07:56;;;;;;;5.28;3.55;;;17.00;57.10;;;;;;10396724;28;20038;-60
2022/03/29 03:12:57;;;;;;;4.82;3.50;;;17.00;57.10;;;;;;10415433;28;20505;-60
2022/03/29 03:17:58;;;;;;;4.50;3.28;;;17.00;57.10;;;;;;10380389;28;20025;-61
2022/03/29 03:22:58;;;;;;;3.90;3.15;;;17.00;57.10;;;;;;10414975;28;20462;-60
2022/03/29 03:27:59;;;;;;;4.05;2.95;;;17.00;57.80;;;;;;10396557;28;20506;-60
2022/03/29 03:33:00;;;;;;;6.05;3.83;;;17.00;57.20;;;;;;10378319;28;20513;-60
2022/03/29 03:38:00;;;;;;;3.80;2.92;;;17.00;57.20;;;;;;10413700;28;20094;-60
2022/03/29 03:43:05;;;;;;;3.83;3.25;;;17.00;57.10;;;;;;10409851;28;20581;-61
2022/03/29 03:48:06;;;;;;;5.10;3.60;;;17.00;57.00;;;;;;10379805;28;20036;-60
2022/03/29 03:53:07;;;;;;;4.97;3.90;;;17.10;56.70;;;;;;10404482;28;20581;-60
2022/03/29 03:58:07;;;;;;;5.75;3.03;;;17.10;56.70;;;;;;10392838;28;20116;-60
2022/03/29 04:03:09;;;;;;;4.25;3.70;;;17.10;56.90;;;;;;10413206;28;20120;-60
2022/03/29 04:08:10;;;;;;;4.97;3.72;;;17.00;57.00;;;;;;10409591;28;20037;-61
2022/03/29 04:13:11;;;;;;;3.63;3.28;;;17.00;57.00;;;;;;10411899;28;20113;-60
2022/03/29 04:18:11;;;;;;;4.13;3.63;;;17.00;57.00;;;;;;10384365;28;20120;-60
2022/03/29 04:23:12;;;;;;;4.35;3.47;;;17.00;57.00;;;;;;10411353;28;20485;-60
2022/03/29 04:28:13;;;;;;;4.35;3.15;;;17.10;57.10;;;;;;10410860;28;20053;-60
2022/03/29 04:33:14;;;;;;;6.07;3.67;;;17.00;57.10;;;;;;10403449;28;20026;-60
2022/03/29 04:38:14;;;;;;;4.55;3.10;;;17.00;57.10;;;;;;10370422;28;20034;-60
2022/03/29 04:43:15;;;;;;;4.55;3.50;;;17.00;57.20;;;;;;10381654;28;20072;-60
2022/03/29 04:48:16;;;;;;;4.63;3.63;;;17.00;57.20;;;;;;10407953;28;20095;-60
2022/03/29 04:53:17;;;;;;;4.90;3.40;;;16.90;57.10;;;;;;10396436;28;20021;-60
2022/03/29 04:58:18;;;;;;;3.92;3.45;;;17.00;57.20;;;;;;10373401;28;20088;-60
2022/03/29 05:03:19;;;;;;;4.90;3.05;;;17.00;57.20;;;;;;10371738;28;20030;-60
2022/03/29 05:08:20;;;;;;;5.55;3.63;;;16.90;57.10;;;;;;10371793;28;20046;-60
2022/03/29 05:13:21;;;;;;;10.05;4.82;;;17.00;57.00;;;;;;10368401;28;20064;-61
2022/03/29 05:18:21;;;;;;;18.70;5.53;;;17.10;57.10;;;;;;10371614;28;20113;-59
2022/03/29 05:23:23;;;;;;;16.40;5.10;;;17.30;57.70;;;;;;10395047;28;20029;-60
2022/03/29 05:28:24;;;;;;;16.45;5.07;;;17.30;57.40;;;;;;10394211;28;20075;-58
2022/03/29 05:33:25;;;;;;;18.13;5.20;;;17.30;57.50;;;;;;10386709;28;20120;-60
2022/03/29 05:38:25;;;;;;;25.00;5.82;;;17.30;57.90;;;;;;10416143;28;20116;-60
2022/03/29 05:43:26;;;;;;;20.52;6.30;;;17.20;58.30;;;;;;10408073;28;20125;-59
2022/03/29 05:53:46;;;;;;;12.73;4.28;;;17.30;59.50;;;;;;10391777;28;20034;-60
2022/03/29 05:58:47;;;;;;;19.42;5.60;;;17.20;58.90;;;;;;10380108;28;20763;-59
2022/03/29 06:03:48;;;;;;;24.48;6.65;;;17.10;59.10;;;;;;10395097;28;20042;-59
2022/03/29 06:08:49;;;;;;;17.33;6.28;;;17.00;59.00;;;;;;10385109;28;20046;-59
2022/03/29 06:13:50;;;;;;;22.63;6.30;;;17.00;59.30;;;;;;10377225;28;20061;-61
2022/03/29 06:18:50;;;;;;;13.02;4.65;;;17.00;59.00;;;;;;10376959;28;20061;-60
2022/03/29 06:23:51;;;;;;;16.70;6.25;;;16.90;58.80;;;;;;10377075;28;20073;-60
2022/03/29 06:28:52;;;;;;;11.95;5.22;;;16.90;58.80;;;;;;10376492;28;20034;-60
2022/03/29 06:33:53;;;;;;;13.35;4.00;;;16.90;58.70;;;;;;10388261;28;20053;-60
2022/03/29 06:38:54;;;;;;;10.25;5.40;;;16.80;58.70;;;;;;10413795;28;20065;-60
2022/03/29 06:43:55;;;;;;;8.63;4.40;;;16.90;58.70;;;;;;10405513;28;20036;-61
2022/03/29 06:48:57;;;;;;;15.32;6.50;;;16.80;58.70;;;;;;10391325;28;20065;-62
2022/03/29 06:53:57;;;;;;;10.60;4.47;;;16.80;59.20;;;;;;10392303;28;20022;-62
2022/03/29 06:59:00;;;;;;;10.73;4.50;;;16.90;58.60;;;;;;10375327;28;20029;-62
2022/03/29 07:04:02;;;;;;;9.73;4.82;;;17.00;58.30;;;;;;10375523;28;20475;-62
2022/03/29 07:14:22;;;;;;;12.20;4.57;;;17.00;58.00;;;;;;10388231;28;20132;-63
2022/03/29 07:19:24;;;;;;;9.63;4.93;;;17.00;58.10;;;;;;10392276;28;20071;-62
2022/03/29 07:24:25;;;;;;;7.78;4.72;;;17.00;58.00;;;;;;10393645;28;20021;-62
2022/03/29 07:29:26;;;;;;;13.95;5.32;;;16.90;57.90;;;;;;10387337;28;20030;-62
2022/03/29 07:34:27;;;;;;;8.68;5.10;;;16.80;57.90;;;;;;10365673;28;20052;-62
2022/03/29 07:39:28;;;;;;;7.57;4.15;;;16.80;58.00;;;;;;10406169;28;20120;-62
2022/03/29 07:44:29;;;;;;;6.85;3.65;;;16.80;58.00;;;;;;10366509;28;20132;-62
2022/03/29 07:49:30;;;;;;;7.95;4.40;;;16.80;58.10;;;;;;10379163;28;20037;-62
2022/03/29 07:54:31;;;;;;;6.35;4.20;;;16.80;58.10;;;;;;10396552;28;20066;-62
2022/03/29 07:59:31;;;;;;;10.70;4.82;;;16.80;58.10;;;;;;10353297;28;20120;-62
2022/03/29 08:04:33;;;;;;;7.63;3.88;;;16.80;58.10;;;;;;10367906;28;20088;-62
2022/03/29 08:09:34;;;;;;;10.02;4.85;;;16.80;58.10;;;;;;10388029;28;20046;-62
2022/03/29 08:14:35;;;;;;;6.25;3.90;;;16.80;57.80;;;;;;10386298;28;20081;-62
2022/03/29 08:19:36;;;;;;;6.50;4.95;;;16.80;57.70;;;;;;10389007;28;20026;-62
2022/03/29 08:24:36;;;;;;;6.38;3.97;;;16.80;57.70;;;;;;10391698;28;20210;-62
2022/03/29 08:29:38;;;;;;;6.05;4.63;;;16.80;58.00;;;;;;10387347;28;20065;-61
2022/03/29 08:34:39;;;;;;;5.55;3.78;;;16.90;57.70;;;;;;10393890;28;20042;-62
2022/03/29 08:39:39;;;;;;;6.10;3.53;;;16.90;57.60;;;;;;10374215;28;20064;-62
2022/03/29 08:44:41;;;;;;;8.80;4.32;;;16.90;57.50;;;;;;10390313;28;20087;-62
2022/03/29 08:49:45;;;;;;;8.27;4.18;;;16.90;57.50;;;;;;10396418;28;20163;-61
2022/03/29 08:54:47;;;;;;;7.63;4.93;;;16.90;57.40;;;;;;10392807;28;20029;-62
2022/03/29 08:59:48;;;;;;;7.63;4.65;;;16.90;57.50;;;;;;10376973;28;20064;-62
2022/03/29 09:05:12;;;;;;;6.10;4.70;;;16.90;57.40;;;;;;10392236;28;20085;-62
2022/03/29 09:10:13;;;;;;;7.55;4.57;;;16.80;57.40;;;;;;10403475;28;20041;-62
2022/03/29 09:15:15;;;;;;;9.30;4.93;;;16.80;57.50;;;;;;10379077;28;20037;-62
2022/03/29 09:20:21;;;;;;;6.07;4.22;;;16.80;57.50;;;;;;10391675;28;20071;-62
2022/03/29 09:25:34;;;;;;;10.18;6.57;;;16.80;57.50;;;;;;10388482;28;20029;-62
2022/03/29 09:30:40;;;;;;;6.68;4.93;;;16.80;57.50;;;;;;10417976;28;20113;-62
2022/03/29 09:36:00;;;;;;;8.93;5.45;;;16.80;57.60;;;;;;10391971;28;20041;-62
2022/03/29 09:41:04;;;;;;;6.60;4.85;;;16.80;57.60;;;;;;10407357;28;20042;-62
2022/03/29 09:46:05;;;;;;;7.15;5.05;;;16.80;57.70;;;;;;10416557;28;20033;-62
2022/03/29 09:51:10;;;;;;;8.35;5.15;;;16.80;57.80;;;;;;10417044;28;20490;-62
2022/03/29 09:56:19;;;;;;;7.63;5.22;;;16.80;57.80;;;;;;10402652;28;20084;-62
2022/03/29 10:01:25;;;;;;;7.43;4.93;;;16.80;57.80;;;;;;10417710;28;20347;-62
2022/03/29 10:06:26;;;;;;;8.50;5.45;;;16.90;57.80;;;;;;10416542;28;20044;-62
2022/03/29 10:11:27;;;;;;;7.70;5.28;;;16.80;57.70;;;;;;10383184;28;20044;-62
2022/03/29 10:16:28;;;;;;;9.23;5.15;;;16.90;57.80;;;;;;10389893;28;20096;-62
2022/03/29 10:21:29;;;;;;;6.90;5.03;;;16.90;57.70;;;;;;10377194;28;20032;-62
2022/03/29 10:26:33;;;;;;;7.75;5.57;;;16.90;57.80;;;;;;10382099;28;20045;-62
2022/03/29 10:31:39;;;;;;;9.02;5.65;;;17.00;57.70;;;;;;10372478;28;20026;-62
2022/03/29 10:37:09;;;;;;;7.90;5.85;;;17.00;57.60;;;;;;10393027;28;20053;-64
2022/03/29 10:42:38;;;;;;;7.43;5.93;;;17.10;58.20;;;;;;10393562;28;20022;-62
2022/03/29 10:47:40;;;;;;;10.45;6.13;;;17.10;58.00;;;;;;10375898;28;20033;-62
2022/03/29 10:52:47;;;;;;;8.23;5.85;;;17.10;58.10;;;;;;10384268;28;20033;-62
2022/03/29 10:58:08;;;;;;;10.27;5.40;;;17.10;58.00;;;;;;10375488;28;20125;-62
2022/03/29 11:03:14;;;;;;;9.57;6.20;;;17.10;58.00;;;;;;10381343;28;20030;-61
2022/03/29 11:08:20;;;;;;;9.15;6.03;;;17.20;58.00;;;;;;10403969;28;20073;-61
2022/03/29 11:13:24;;;;;;;10.70;6.63;;;17.20;57.50;;;;;;10416176;28;20374;-61
2022/03/29 11:18:30;;;;;;;9.98;7.05;;;17.20;57.50;;;;;;10373697;28;20092;-60
2022/03/29 11:23:37;;;;;;;7.75;5.97;;;17.20;57.70;;;;;;10374243;28;20037;-60
2022/03/29 11:28:54;;;;;;;8.63;6.43;;;17.20;57.90;;;;;;10404525;28;20033;-58
2022/03/29 11:33:56;;;;;;;8.93;6.63;;;17.30;58.00;;;;;;10401142;28;20053;-58
2022/03/29 11:38:57;;;;;;;9.07;7.20;;;17.40;58.10;;;;;;10385146;28;20037;-60
2022/03/29 11:44:07;;;;;;;8.20;6.10;;;17.40;58.20;;;;;;10386859;28;20045;-59
2022/03/29 11:49:07;;;;;;;11.90;6.75;;;17.40;58.20;;;;;;10389533;28;20389;-58
2022/03/29 11:54:08;;;;;;;15.73;6.80;;;17.40;58.30;;;;;;10391614;28;20030;-58
2022/03/29 11:59:15;;;;;;;13.02;6.78;;;17.50;58.50;;;;;;10371754;28;20022;-57
2022/03/29 12:04:15;;;;;;;7.70;6.30;;;17.50;58.40;;;;;;10371770;28;20100;-57
2022/03/29 12:09:26;;;;;;;8.30;6.93;;;17.50;58.40;;;;;;10372600;28;20172;-57
2022/03/29 12:14:27;;;;;;;8.60;6.22;;;17.60;58.20;;;;;;10370623;28;20136;-58
2022/03/29 12:19:31;;;;;;;12.52;6.32;;;17.50;58.20;;;;;;10384995;28;20036;-60
2022/03/29 12:24:42;;;;;;;11.68;7.05;;;17.50;58.00;;;;;;10389275;28;20108;-59
2022/03/29 12:30:02;;;;;;;11.90;6.75;;;17.60;57.70;;;;;;10387341;28;20030;-58
2022/03/29 12:35:05;;;;;;;10.40;7.18;;;17.60;57.70;;;;;;10371201;28;20072;-57
2022/03/29 12:40:10;;;;;;;15.30;8.30;;;17.60;57.40;;;;;;10375263;28;20065;-57
2022/03/29 12:45:11;;;;;;;14.05;8.30;;;17.60;57.30;;;;;;10382861;28;20032;-57
2022/03/29 12:50:13;;;;;;;14.55;8.93;;;17.70;57.20;;;;;;10405851;28;20064;-57
2022/03/29 12:55:19;;;;;;;16.35;9.48;;;17.70;56.90;;;;;;10382939;28;20685;-56
2022/03/29 13:00:20;;;;;;;21.60;8.95;;;17.70;57.00;;;;;;10399122;28;20046;-58
2022/03/29 13:05:23;;;;;;;16.38;9.43;;;17.70;56.80;;;;;;10367308;28;20121;-57
2022/03/29 13:10:40;;;;;;;16.05;9.32;;;17.80;56.20;;;;;;10361710;28;20151;-57
2022/03/29 13:16:09;;;;;;;15.48;7.90;;;17.80;55.80;;;;;;10371578;28;20045;-58
2022/03/29 13:21:23;;;;;;;19.40;9.13;;;17.80;56.20;;;;;;10410936;28;20520;-57
2022/03/29 13:26:29;;;;;;;13.77;9.45;;;17.80;56.20;;;;;;10400548;28;20029;-58
2022/03/29 13:31:31;;;;;;;19.92;9.25;;;17.80;56.10;;;;;;10382159;28;20041;-57
2022/03/29 13:36:32;;;;;;;10.70;8.38;;;17.80;56.00;;;;;;10404268;28;20116;-57
2022/03/29 13:41:33;;;;;;;12.93;9.15;;;17.80;56.20;;;;;;10395672;28;20099;-58
2022/03/29 13:46:34;;;;;;;16.02;8.23;;;17.90;56.00;;;;;;10394596;28;20155;-58
2022/03/29 13:51:35;;;;;;;16.90;10.48;;;18.00;55.50;;;;;;10375921;28;20104;-56
2022/03/29 13:56:36;;;;;;;19.70;8.95;;;18.00;55.50;;;;;;10391322;28;20030;-58
2022/03/29 14:01:38;;;;;;;14.60;8.50;;;18.00;55.30;;;;;;10398582;28;20053;-58
2022/03/29 14:06:39;;;;;;;14.25;8.63;;;18.00;55.30;;;;;;10405908;28;20065;-57
2022/03/29 14:11:39;;;;;;;13.57;9.40;;;17.90;55.80;;;;;;10393437;28;20058;-56
2022/03/29 14:16:40;;;;;;;12.43;7.80;;;17.90;55.90;;;;;;10387464;28;20038;-56
2022/03/29 14:21:41;;;;;;;17.52;9.65;;;17.90;55.90;;;;;;10375501;28;20030;-56
2022/03/29 14:26:42;;;;;;;13.88;7.90;;;17.90;55.90;;;;;;10375589;28;20497;-56
2022/03/29 14:31:44;;;;;;;16.63;8.90;;;17.90;55.90;;;;;;10375632;28;20034;-57
2022/03/29 14:36:46;;;;;;;12.27;7.65;;;17.90;56.20;;;;;;10410718;28;20516;-57
2022/03/29 14:41:47;;;;;;;12.30;7.82;;;17.90;56.30;;;;;;10414641;28;20080;-56
2022/03/29 14:46:48;;;;;;;12.60;8.00;;;17.90;56.60;;;;;;10377591;28;20022;-56
2022/03/29 14:51:48;;;;;;;13.35;7.85;;;17.90;56.60;;;;;;10375543;28;20113;-56
2022/03/29 14:56:50;;;;;;;11.55;7.05;;;17.90;56.70;;;;;;10412539;28;20611;-56
2022/03/29 15:01:51;;;;;;;11.60;6.55;;;17.90;56.70;;;;;;10385374;28;20040;-57
2022/03/29 15:06:53;;;;;;;10.65;6.95;;;17.90;56.70;;;;;;10415467;28;20133;-58
2022/03/29 15:11:55;;;;;;;12.52;6.95;;;17.90;56.80;;;;;;10400709;28;20040;-56
2022/03/29 15:16:59;;;;;;;12.40;6.28;;;17.90;56.80;;;;;;10388513;28;20573;-57
2022/03/29 15:21:59;;;;;;;12.07;6.03;;;17.80;56.80;;;;;;10381743;28;20069;-58
2022/03/29 15:27:00;;;;;;;14.43;6.25;;;17.90;56.80;;;;;;10390371;28;20100;-58
2022/03/29 15:32:01;;;;;;;13.00;6.38;;;17.90;56.90;;;;;;10384348;28;20477;-55
2022/03/29 15:37:11;;;;;;;14.35;7.07;;;17.90;57.00;;;;;;10401237;28;20021;-60
2022/03/29 15:42:14;;;;;;;10.68;6.20;;;17.80;57.00;;;;;;10410267;28;20029;-57
2022/03/29 15:47:17;;;;;;;10.18;5.85;;;17.80;57.10;;;;;;10373031;28;20512;-57
2022/03/29 15:52:19;;;;;;;10.93;6.18;;;17.80;57.10;;;;;;10375398;28;20040;-57
2022/03/29 15:57:21;;;;;;;8.13;5.75;;;17.70;57.10;;;;;;10409995;28;20044;-57
2022/03/29 16:02:22;;;;;;;10.13;6.03;;;17.70;57.10;;;;;;10381691;28;20104;-57
2022/03/29 16:07:22;;;;;;;9.10;5.78;;;17.70;57.20;;;;;;10410730;28;20052;-57
2022/03/29 16:12:23;;;;;;;10.50;5.80;;;17.70;57.20;;;;;;10411881;28;20065;-57
2022/03/29 16:17:26;;;;;;;10.82;6.07;;;17.70;57.20;;;;;;10372269;28;20061;-57
2022/03/29 16:22:26;;;;;;;7.82;5.78;;;17.70;57.20;;;;;;10380015;28;20367;-57
2022/03/29 16:27:29;;;;;;;13.55;6.10;;;17.60;57.20;;;;;;10389195;28;20026;-57
2022/03/29 16:32:30;;;;;;;12.45;6.47;;;17.60;57.20;;;;;;10397147;28;20044;-58
2022/03/29 16:37:32;;;;;;;34.15;9.98;;;17.60;57.00;;;;;;10376948;28;20029;-58
2022/03/29 16:42:34;;;;;;;25.80;8.52;;;17.70;59.90;;;;;;10374964;28;20061;-59
2022/03/29 16:47:35;;;;;;;30.65;11.70;;;17.70;58.90;;;;;;10366739;28;20508;-56
2022/03/29 16:52:36;;;;;;;26.17;10.18;;;17.70;60.50;;;;;;10376963;28;20041;-56
2022/03/29 16:57:37;;;;;;;15.73;8.25;;;17.70;60.30;;;;;;10378508;28;20057;-58
2022/03/29 17:02:38;;;;;;;35.88;8.98;;;17.70;58.50;;;;;;10371205;28;20025;-60
2022/03/29 17:07:38;;;;;;;40.10;10.25;;;17.70;59.00;;;;;;10370705;28;20069;-61
2022/03/29 17:12:39;;;;;;;27.42;9.77;;;17.70;59.40;;;;;;10392769;28;20034;-60
2022/03/29 17:17:40;;;;;;;32.33;8.70;;;17.60;59.40;;;;;;10416268;28;20100;-60
2022/03/29 17:22:41;;;;;;;32.05;8.95;;;17.60;59.10;;;;;;10418347;28;20033;-61
2022/03/29 17:27:42;;;;;;;20.48;9.68;;;17.50;59.10;;;;;;10388688;28;20033;-60
2022/03/29 17:32:44;;;;;;;21.67;9.05;;;17.50;59.00;;;;;;10415308;28;20057;-61
2022/03/29 17:37:45;;;;;;;27.83;8.90;;;17.40;58.90;;;;;;10377811;28;20041;-61
2022/03/29 17:42:46;;;;;;;22.65;8.80;;;17.50;58.90;;;;;;10408947;28;20030;-61
2022/03/29 17:47:47;;;;;;;19.50;8.77;;;17.40;58.70;;;;;;10368144;28;20025;-60
2022/03/29 17:52:48;;;;;;;23.40;8.30;;;17.40;58.70;;;;;;10403410;28;20402;-60
2022/03/29 17:57:49;;;;;;;17.83;7.32;;;17.40;58.60;;;;;;10383544;28;20119;-60
2022/03/29 18:02:50;;;;;;;16.85;7.70;;;17.40;58.40;;;;;;10390193;28;20541;-60
2022/03/29 18:07:51;;;;;;;16.70;8.70;;;17.40;58.20;;;;;;10385487;28;20038;-64
2022/03/29 18:12:52;;;;;;;20.80;9.15;;;17.40;59.20;;;;;;10399275;28;20029;-61
2022/03/29 18:17:52;;;;;;;19.08;8.93;;;17.40;58.50;;;;;;10386349;28;20061;-60
2022/03/29 18:22:57;;;;;;;18.48;8.80;;;17.40;58.70;;;;;;10392811;28;20057;-61
2022/03/29 18:28:00;;;;;;;16.63;9.50;;;17.40;58.60;;;;;;10377315;28;20038;-61
2022/03/29 18:33:00;;;;;;;25.25;9.25;;;17.50;58.60;;;;;;10381340;28;20481;-61
2022/03/29 18:38:01;;;;;;;60.78;18.70;;;17.50;58.60;;;;;;10402574;28;20067;-62
2022/03/29 18:43:02;;;;;;;41.20;14.30;;;17.50;58.70;;;;;;10352727;28;20135;-62
2022/03/29 18:48:06;;;;;;;26.92;10.60;;;17.50;58.70;;;;;;10388713;28;20017;-61
2022/03/29 18:53:07;;;;;;;22.17;9.80;;;17.50;58.70;;;;;;10397900;28;20033;-62
2022/03/29 18:58:08;;;;;;;26.30;10.73;;;17.50;58.70;;;;;;10378757;28;20462;-61
2022/03/29 19:03:08;;;;;;;38.35;10.77;;;17.50;58.70;;;;;;10371876;28;20482;-61
2022/03/29 19:08:09;;;;;;;25.05;12.77;;;17.40;58.30;;;;;;10399097;28;20064;-62
2022/03/29 19:13:12;;;;;;;22.15;9.15;;;17.40;58.50;;;;;;10392377;28;20049;-62
2022/03/29 19:18:13;;;;;;;21.65;8.98;;;17.40;58.50;;;;;;10386380;28;20083;-62
2022/03/29 19:23:14;;;;;;;22.92;11.40;;;17.40;58.40;;;;;;10396646;28;20543;-61
2022/03/29 19:28:16;;;;;;;22.42;8.65;;;17.40;58.40;;;;;;10394004;28;20017;-62
2022/03/29 19:33:17;;;;;;;24.60;8.60;;;17.40;58.40;;;;;;10385657;28;20087;-61
2022/03/29 19:38:18;;;;;;;18.33;8.95;;;17.40;58.40;;;;;;10389468;28;20025;-61
2022/03/29 19:43:46;;;;;;;14.40;6.93;;;17.40;58.40;;;;;;10381218;28;20109;-61
2022/03/29 19:48:46;;;;;;;13.75;7.13;;;17.40;58.40;;;;;;10376117;28;20033;-61
2022/03/29 19:53:47;;;;;;;21.30;7.70;;;17.40;58.30;;;;;;10382318;28;20032;-62
2022/03/29 19:58:48;;;;;;;13.20;7.00;;;17.30;58.20;;;;;;10373131;28;20034;-61
2022/03/29 20:03:48;;;;;;;17.23;8.57;;;17.30;58.00;;;;;;10369739;28;20022;-62
2022/03/29 20:08:49;;;;;;;11.85;6.63;;;17.40;58.00;;;;;;10371215;28;20049;-61
2022/03/29 20:13:50;;;;;;;12.13;7.20;;;17.40;57.90;;;;;;10373848;28;20106;-62
2022/03/29 20:18:53;;;;;;;14.65;7.80;;;17.30;57.80;;;;;;10388862;28;20082;-61
2022/03/29 20:23:54;;;;;;;12.35;6.45;;;17.30;57.60;;;;;;10410902;28;20033;-61
2022/03/29 20:28:54;;;;;;;13.63;8.23;;;17.30;57.60;;;;;;10410626;28;20072;-61
2022/03/29 20:33:55;;;;;;;18.65;9.25;;;17.30;57.60;;;;;;10367635;28;20025;-61
2022/03/29 20:38:56;;;;;;;12.35;7.35;;;17.30;57.50;;;;;;10391760;28;20560;-61
2022/03/29 20:43:57;;;;;;;14.38;7.00;;;17.30;57.60;;;;;;10354583;28;20034;-61
2022/03/29 20:48:58;;;;;;;17.73;7.07;;;17.30;57.50;;;;;;10410316;28;20033;-61
2022/03/29 20:54:01;;;;;;;12.80;6.85;;;17.30;57.50;;;;;;10383059;28;20488;-61
2022/03/29 20:59:02;;;;;;;12.15;6.65;;;17.20;57.30;;;;;;10376114;28;20026;-61
2022/03/29 21:04:06;;;;;;;17.48;7.45;;;17.20;57.30;;;;;;10378231;28;20085;-62
2022/03/29 21:09:08;;;;;;;11.50;6.57;;;17.20;57.20;;;;;;10378081;28;20057;-61
2022/03/29 21:14:09;;;;;;;13.18;6.60;;;17.20;57.10;;;;;;10378645;28;20045;-62
2022/03/29 21:19:09;;;;;;;11.40;6.00;;;17.20;57.20;;;;;;10377881;28;20301;-62
2022/03/29 21:24:11;;;;;;;14.27;7.65;;;17.20;57.10;;;;;;10386056;28;20109;-61
2022/03/29 21:29:12;;;;;;;9.32;6.13;;;17.20;57.10;;;;;;10377371;28;20033;-61
2022/03/29 21:34:13;;;;;;;10.10;6.15;;;17.20;57.10;;;;;;10375147;28;20035;-61
2022/03/29 21:39:13;;;;;;;13.32;7.13;;;17.20;57.10;;;;;;10417024;28;20404;-61
2022/03/29 21:44:14;;;;;;;11.40;6.70;;;17.10;57.10;;;;;;10400107;28;20096;-61
2022/03/29 21:49:16;;;;;;;10.00;6.55;;;17.20;57.00;;;;;;10377130;28;20084;-61
2022/03/29 21:54:17;;;;;;;9.38;5.82;;;17.20;56.90;;;;;;10385084;28;20478;-61
2022/03/29 21:59:18;;;;;;;8.00;6.43;;;17.10;56.80;;;;;;10412811;28;20029;-61
2022/03/29 22:04:19;;;;;;;9.23;6.15;;;17.10;56.80;;;;;;10415719;28;20025;-61
2022/03/29 22:09:20;;;;;;;8.77;6.00;;;17.10;56.80;;;;;;10379704;28;20041;-61
2022/03/29 22:14:20;;;;;;;8.70;5.63;;;17.10;57.20;;;;;;10406132;28;20053;-61
2022/03/29 22:19:21;;;;;;;9.27;7.03;;;17.20;57.20;;;;;;10415398;28;20115;-61
2022/03/29 22:24:22;;;;;;;8.27;5.45;;;17.10;57.30;;;;;;10381828;28;20064;-62
2022/03/29 22:29:23;;;;;;;8.20;6.30;;;17.20;57.20;;;;;;10414732;28;20477;-61
2022/03/29 22:34:23;;;;;;;8.18;5.28;;;17.20;56.80;;;;;;10386702;28;20509;-61
2022/03/29 22:39:24;;;;;;;11.23;5.15;;;17.20;56.80;;;;;;10381024;28;20073;-61
2022/03/29 22:44:25;;;;;;;10.30;6.32;;;17.20;56.70;;;;;;10374655;28;20070;-61
2022/03/29 22:49:26;;;;;;;8.40;5.13;;;17.10;56.60;;;;;;10374461;28;20160;-61
2022/03/29 22:54:26;;;;;;;11.73;6.18;;;17.10;56.70;;;;;;10387176;28;20030;-61
2022/03/29 22:59:27;;;;;;;6.43;4.90;;;17.10;56.70;;;;;;10373284;28;20038;-61
2022/03/29 23:04:27;;;;;;;8.38;4.85;;;17.10;56.70;;;;;;10373488;28;20064;-61
2022/03/29 23:09:28;;;;;;;9.25;4.85;;;17.10;56.70;;;;;;10373685;28;20136;-62
2022/03/29 23:14:31;;;;;;;8.00;5.45;;;17.10;56.90;;;;;;10373094;28;20065;-62
2022/03/29 23:19:36;;;;;;;8.20;5.43;;;17.10;57.20;;;;;;10379244;28;20037;-61
2022/03/29 23:24:37;;;;;;;10.40;5.80;;;17.10;56.80;;;;;;10373000;28;20054;-62
2022/03/29 23:29:39;;;;;;;10.05;5.47;;;17.10;56.60;;;;;;10372805;28;20498;-61
2022/03/29 23:34:40;;;;;;;8.45;5.07;;;17.10;56.50;;;;;;10390846;28;20111;-61
2022/03/29 23:39:41;;;;;;;8.40;4.53;;;17.10;56.40;;;;;;10375465;28;20121;-62
2022/03/29 23:44:42;;;;;;;8.07;5.05;;;17.10;56.40;;;;;;10372096;28;20095;-61
2022/03/29 23:49:42;;;;;;;6.57;5.28;;;17.10;56.70;;;;;;10372878;28;20030;-61
2022/03/29 23:54:43;;;;;;;9.02;4.97;;;17.10;56.40;;;;;;10379950;28;20140;-61
2022/03/29 23:59:43;;;;;;;8.60;4.47;;;17.10;56.50;;;;;;10367521;28;20462;-61
